createdAt,value
2022-11-27T00:00:35.335Z,9.10
2022-11-27T00:03:21.999Z,9.50
2022-11-27T00:06:08.597Z,9.10
2022-11-27T00:08:55.103Z,6.90
2022-11-27T00:11:41.584Z,6.70
2022-11-27T00:14:28.101Z,7.07
2022-11-27T00:17:14.581Z,8.70
2022-11-27T00:20:01.100Z,8.60
2022-11-27T00:22:47.596Z,9.27
2022-11-27T00:25:34.152Z,8.77
2022-11-27T00:28:20.622Z,8.53
2022-11-27T00:31:07.168Z,9.57
2022-11-27T00:33:53.699Z,9.83
2022-11-27T00:36:43.923Z,9.30
2022-11-27T00:39:33.226Z,9.93
2022-11-27T00:42:19.757Z,10.07
2022-11-27T00:45:06.252Z,10.00
2022-11-27T00:47:52.747Z,10.30
2022-11-27T00:50:39.229Z,10.83
2022-11-27T00:53:25.740Z,10.30
2022-11-27T00:56:12.229Z,11.73
2022-11-27T00:58:58.730Z,11.60
2022-11-27T01:01:45.225Z,11.43
2022-11-27T01:04:31.740Z,12.80
2022-11-27T01:07:18.296Z,12.97
2022-11-27T01:10:04.786Z,11.87
2022-11-27T01:12:51.271Z,10.60
2022-11-27T01:15:37.824Z,11.90
2022-11-27T01:18:24.363Z,10.70
2022-11-27T01:21:10.871Z,10.43
2022-11-27T01:23:57.350Z,9.47
2022-11-27T01:26:43.848Z,9.83
2022-11-27T01:29:30.454Z,11.00
2022-11-27T01:32:17.027Z,9.87
2022-11-27T01:35:03.541Z,10.33
2022-11-27T01:37:50.025Z,7.93
2022-11-27T01:40:36.544Z,7.73
2022-11-27T01:43:23.037Z,8.13
2022-11-27T01:46:09.665Z,8.20
2022-11-27T01:48:56.227Z,9.13
2022-11-27T01:51:42.711Z,9.43
2022-11-27T01:54:29.216Z,10.53
2022-11-27T01:57:15.691Z,10.37
2022-11-27T02:00:02.220Z,10.10
2022-11-27T02:02:48.742Z,11.67
2022-11-27T02:05:35.372Z,12.03
2022-11-27T02:08:21.846Z,13.07
2022-11-27T02:11:08.355Z,13.87
2022-11-27T02:13:54.846Z,16.17
2022-11-27T02:16:41.524Z,17.57
2022-11-27T02:19:28.114Z,13.97
2022-11-27T02:22:14.596Z,12.13
2022-11-27T02:25:01.088Z,12.07
2022-11-27T02:27:47.559Z,15.77
2022-11-27T02:30:34.069Z,12.47
2022-11-27T02:33:20.557Z,12.20
2022-11-27T02:36:07.035Z,12.80
2022-11-27T02:38:53.539Z,12.93
2022-11-27T02:41:40.023Z,14.03
2022-11-27T02:44:26.527Z,14.13
2022-11-27T02:47:13.029Z,14.13
2022-11-27T02:49:59.520Z,13.03
2022-11-27T02:52:46.010Z,12.67
2022-11-27T02:55:32.500Z,15.17
2022-11-27T02:58:19.008Z,16.40
2022-11-27T03:01:05.531Z,10.70
2022-11-27T03:03:52.055Z,14.83
2022-11-27T03:06:38.567Z,14.03
2022-11-27T03:09:25.044Z,9.37
2022-11-27T03:12:11.539Z,11.40
2022-11-27T03:14:58.012Z,11.10
2022-11-27T03:17:44.552Z,14.13
2022-11-27T03:20:31.112Z,12.33
2022-11-27T03:23:17.580Z,13.07
2022-11-27T03:26:04.084Z,15.37
2022-11-27T03:28:50.566Z,14.63
2022-11-27T03:31:37.113Z,13.80
2022-11-27T03:34:23.641Z,13.03
2022-11-27T03:37:10.200Z,11.50
2022-11-27T03:39:56.683Z,11.83
2022-11-27T03:42:43.198Z,12.73
2022-11-27T03:45:29.714Z,9.23
2022-11-27T03:48:16.242Z,11.50
2022-11-27T03:51:02.740Z,9.87
2022-11-27T03:53:49.223Z,8.67
2022-11-27T03:56:35.705Z,15.13
2022-11-27T03:59:22.369Z,9.87
2022-11-27T04:02:08.982Z,11.97
2022-11-27T04:04:55.518Z,12.33
2022-11-27T04:07:42.074Z,12.47
2022-11-27T04:10:28.638Z,8.17
2022-11-27T04:13:15.136Z,10.97
2022-11-27T04:16:01.782Z,7.83
2022-11-27T04:18:48.336Z,6.33
2022-11-27T04:21:34.823Z,5.87
2022-11-27T04:24:21.333Z,7.67
2022-11-27T04:27:07.807Z,8.77
2022-11-27T04:29:54.303Z,6.80
2022-11-27T04:32:40.848Z,7.53
2022-11-27T04:35:27.364Z,8.23
2022-11-27T04:38:13.890Z,7.93
2022-11-27T04:41:00.391Z,6.57
2022-11-27T04:43:46.874Z,9.17
2022-11-27T04:46:33.408Z,8.57
2022-11-27T04:49:19.982Z,7.67
2022-11-27T04:52:06.508Z,9.77
2022-11-27T04:54:58.331Z,13.47
2022-11-27T04:57:46.439Z,10.60
2022-11-27T05:00:32.937Z,9.23
2022-11-27T05:03:19.598Z,8.03
2022-11-27T05:06:06.113Z,11.83
2022-11-27T05:08:52.592Z,6.50
2022-11-27T05:11:39.075Z,8.43
2022-11-27T05:14:25.564Z,4.93
2022-11-27T05:17:12.056Z,7.27
2022-11-27T05:19:58.540Z,6.63
2022-11-27T05:22:45.060Z,5.50
2022-11-27T05:25:31.547Z,7.93
2022-11-27T05:28:22.329Z,12.40
2022-11-27T05:31:11.681Z,9.97
2022-11-27T05:33:58.241Z,6.23
2022-11-27T05:36:44.728Z,6.17
2022-11-27T05:39:31.228Z,4.00
2022-11-27T05:42:17.701Z,3.93
2022-11-27T05:45:04.200Z,8.63
2022-11-27T05:47:50.675Z,7.73
2022-11-27T05:50:37.175Z,4.57
2022-11-27T05:53:23.651Z,4.77
2022-11-27T05:56:10.155Z,4.53
2022-11-27T05:58:56.656Z,6.83
2022-11-27T06:01:43.265Z,9.60
2022-11-27T06:04:29.811Z,4.43
2022-11-27T06:07:16.315Z,8.17
2022-11-27T06:10:02.824Z,11.40
2022-11-27T06:12:49.295Z,7.67
2022-11-27T06:15:35.849Z,7.73
2022-11-27T06:18:22.341Z,5.17
2022-11-27T06:21:08.865Z,4.77
2022-11-27T06:23:55.335Z,6.50
2022-11-27T06:26:41.856Z,7.13
2022-11-27T06:29:28.319Z,5.33
2022-11-27T06:32:14.878Z,6.43
2022-11-27T06:35:01.425Z,10.50
2022-11-27T06:37:47.914Z,5.20
2022-11-27T06:40:34.421Z,4.47
2022-11-27T06:43:20.902Z,7.53
2022-11-27T06:46:07.450Z,5.97
2022-11-27T06:48:53.955Z,4.73
2022-11-27T06:51:40.457Z,8.57
2022-11-27T06:54:26.931Z,6.90
2022-11-27T06:57:13.436Z,6.70
2022-11-27T06:59:59.908Z,5.50
2022-11-27T07:02:46.406Z,5.93
2022-11-27T07:05:32.911Z,6.90
2022-11-27T07:08:19.400Z,7.97
2022-11-27T07:11:05.875Z,42.43
2022-11-27T07:13:52.431Z,5.47
2022-11-27T07:16:38.955Z,6.33
2022-11-27T07:19:26.721Z,5.23
2022-11-27T07:22:13.195Z,5.53
2022-11-27T07:24:59.696Z,7.13
2022-11-27T07:27:46.186Z,6.40
2022-11-27T07:30:32.672Z,7.80
2022-11-27T07:33:19.164Z,8.47
2022-11-27T07:36:05.644Z,7.23
2022-11-27T07:38:52.137Z,6.07
2022-11-27T07:41:38.630Z,6.80
2022-11-27T07:44:25.099Z,15.63
2022-11-27T07:47:11.612Z,9.40
2022-11-27T07:49:58.078Z,11.50
2022-11-27T07:52:44.598Z,9.93
2022-11-27T07:55:31.075Z,8.83
2022-11-27T07:58:17.617Z,7.73
2022-11-27T08:01:04.160Z,9.53
2022-11-27T08:03:50.703Z,11.23
2022-11-27T08:06:37.180Z,8.93
2022-11-27T08:09:23.683Z,7.47
2022-11-27T08:12:10.169Z,9.03
2022-11-27T08:14:56.660Z,6.23
2022-11-27T08:17:43.131Z,10.63
2022-11-27T08:20:29.624Z,10.83
2022-11-27T08:23:16.100Z,8.23
2022-11-27T08:26:02.610Z,8.23
2022-11-27T08:28:49.126Z,7.93
2022-11-27T08:31:35.649Z,6.73
2022-11-27T08:34:22.153Z,6.67
2022-11-27T08:37:08.669Z,7.00
2022-11-27T08:39:55.150Z,8.60
2022-11-27T08:42:41.647Z,8.40
2022-11-27T08:45:28.147Z,6.67
2022-11-27T08:48:14.681Z,7.60
2022-11-27T08:51:01.146Z,9.97
2022-11-27T08:53:47.668Z,9.83
2022-11-27T08:56:34.144Z,11.87
2022-11-27T08:59:20.657Z,13.33
2022-11-27T09:02:07.165Z,11.40
2022-11-27T09:04:53.697Z,9.30
2022-11-27T09:07:40.372Z,9.77
2022-11-27T09:10:26.938Z,13.17
2022-11-27T09:13:13.494Z,8.60
2022-11-27T09:16:00.126Z,11.63
2022-11-27T09:18:46.819Z,8.07
2022-11-27T09:21:33.401Z,14.60
2022-11-27T09:24:19.909Z,8.77
2022-11-27T09:27:06.392Z,11.13
2022-11-27T09:29:52.870Z,13.47
2022-11-27T09:32:39.418Z,12.17
2022-11-27T09:35:25.978Z,7.63
2022-11-27T09:38:12.669Z,12.03
2022-11-27T09:41:02.952Z,10.67
2022-11-27T09:43:49.828Z,8.63
2022-11-27T09:46:36.429Z,12.63
2022-11-27T09:49:25.883Z,9.10
2022-11-27T09:52:12.386Z,7.20
2022-11-27T09:54:58.904Z,7.53
2022-11-27T09:57:45.390Z,8.53
2022-11-27T10:00:31.911Z,9.27
2022-11-27T10:03:18.510Z,9.43
2022-11-27T10:06:05.083Z,7.83
2022-11-27T10:08:51.579Z,8.37
2022-11-27T10:11:38.091Z,10.97
2022-11-27T10:14:24.592Z,17.03
2022-11-27T10:17:11.161Z,12.27
2022-11-27T10:19:57.737Z,11.47
2022-11-27T10:22:44.234Z,11.33
2022-11-27T10:25:30.776Z,9.67
2022-11-27T10:28:17.261Z,12.43
2022-11-27T10:31:03.783Z,11.20
2022-11-27T10:33:50.285Z,10.23
2022-11-27T10:36:36.788Z,11.27
2022-11-27T10:39:23.444Z,9.77
2022-11-27T10:42:09.951Z,10.97
2022-11-27T10:44:56.456Z,11.73
2022-11-27T10:47:42.967Z,9.20
2022-11-27T10:50:29.508Z,10.53
2022-11-27T10:53:16.007Z,9.60
2022-11-27T10:56:02.493Z,8.17
2022-11-27T10:58:49.007Z,10.57
2022-11-27T11:01:35.540Z,8.30
2022-11-27T11:04:37.394Z,8.03
2022-11-27T11:07:24.987Z,8.33
2022-11-27T11:10:11.568Z,7.13
2022-11-27T11:12:58.043Z,7.83
2022-11-27T11:15:48.658Z,8.10
2022-11-27T11:18:37.917Z,8.57
2022-11-27T11:21:24.408Z,7.57
2022-11-27T11:24:10.888Z,7.73
2022-11-27T11:26:57.441Z,7.30
2022-11-27T11:29:43.956Z,7.13
2022-11-27T11:32:30.445Z,6.67
2022-11-27T11:35:16.974Z,6.90
2022-11-27T11:38:03.445Z,6.07
2022-11-27T11:40:49.944Z,5.30
2022-11-27T11:43:36.427Z,6.27
2022-11-27T11:46:23.078Z,7.43
2022-11-27T11:49:09.650Z,4.50
2022-11-27T11:51:56.140Z,3.50
2022-11-27T11:54:43.023Z,3.87
2022-11-27T11:57:29.607Z,3.17
2022-11-27T12:00:16.128Z,3.33
2022-11-27T12:03:02.626Z,3.13
2022-11-27T12:05:49.186Z,3.10
2022-11-27T12:08:35.665Z,2.60
2022-11-27T12:11:22.172Z,2.70
2022-11-27T12:14:08.675Z,3.20
2022-11-27T12:16:55.272Z,3.90
2022-11-27T12:19:41.859Z,3.83
2022-11-27T12:22:28.460Z,4.00
2022-11-27T12:25:14.977Z,3.43
2022-11-27T12:28:01.515Z,3.73
2022-11-27T12:30:47.995Z,3.40
2022-11-27T12:33:34.503Z,3.80
2022-11-27T12:36:20.984Z,4.07
2022-11-27T12:39:07.687Z,3.30
2022-11-27T12:41:54.212Z,3.70
2022-11-27T12:44:40.986Z,5.30
2022-11-27T12:47:27.691Z,4.00
2022-11-27T12:50:14.383Z,3.47
2022-11-27T12:53:00.908Z,3.53
2022-11-27T12:55:47.446Z,3.50
2022-11-27T12:58:33.957Z,3.03
2022-11-27T13:01:25.012Z,3.00
2022-11-27T13:04:12.824Z,3.20
2022-11-27T13:07:00.321Z,2.77
2022-11-27T13:09:46.789Z,3.10
2022-11-27T13:12:33.684Z,3.20
2022-11-27T13:15:20.251Z,4.60
2022-11-27T13:18:06.779Z,3.93
2022-11-27T13:20:53.342Z,3.27
2022-11-27T13:23:39.952Z,3.70
2022-11-27T13:26:26.794Z,3.37
2022-11-27T13:29:13.362Z,3.50
2022-11-27T13:32:00.189Z,3.43
2022-11-27T13:34:46.755Z,3.33
2022-11-27T13:37:33.376Z,4.10
2022-11-27T13:40:19.887Z,4.23
2022-11-27T13:43:06.537Z,4.80
2022-11-27T13:45:53.051Z,3.80
2022-11-27T13:48:39.657Z,3.47
2022-11-27T13:51:26.317Z,3.70
2022-11-27T13:54:12.795Z,4.30
2022-11-27T13:56:59.367Z,3.47
2022-11-27T13:59:45.841Z,3.47
2022-11-27T14:02:32.503Z,3.50
2022-11-27T14:05:19.015Z,4.10
2022-11-27T14:08:05.560Z,3.57
2022-11-27T14:10:52.178Z,4.03
2022-11-27T14:13:38.677Z,3.63
2022-11-27T14:16:25.277Z,4.20
2022-11-27T14:19:11.853Z,4.50
2022-11-27T14:21:58.397Z,4.00
2022-11-27T14:24:46.080Z,4.17
2022-11-27T14:27:32.636Z,3.90
2022-11-27T14:30:19.196Z,4.77
2022-11-27T14:33:05.663Z,4.70
2022-11-27T14:35:52.240Z,5.30
2022-11-27T14:38:38.755Z,5.73
2022-11-27T14:41:25.384Z,5.50
2022-11-27T14:44:12.013Z,5.33
2022-11-27T14:46:58.561Z,5.30
2022-11-27T14:49:45.100Z,3.97
2022-11-27T14:52:31.644Z,4.10
2022-11-27T14:55:18.172Z,4.70
2022-11-27T14:58:04.644Z,4.33
2022-11-27T15:00:51.149Z,4.10
2022-11-27T15:03:37.756Z,4.03
2022-11-27T15:06:24.314Z,4.00
2022-11-27T15:09:30.701Z,4.30
2022-11-27T15:12:17.267Z,4.53
2022-11-27T15:15:03.959Z,4.97
2022-11-27T15:17:50.526Z,4.80
2022-11-27T15:20:37.013Z,4.83
2022-11-27T15:23:23.544Z,5.77
2022-11-27T15:26:15.171Z,5.30
2022-11-27T15:29:02.648Z,5.07
2022-11-27T15:31:49.176Z,5.20
2022-11-27T15:34:35.711Z,5.80
2022-11-27T15:37:22.180Z,5.27
2022-11-27T15:40:08.747Z,5.47
2022-11-27T15:42:55.229Z,5.23
2022-11-27T15:45:41.771Z,7.33
2022-11-27T15:48:28.264Z,6.57
2022-11-27T15:51:14.762Z,7.57
2022-11-27T15:54:01.273Z,8.20
2022-11-27T15:56:47.802Z,5.77
2022-11-27T15:59:34.293Z,5.67
2022-11-27T16:02:20.927Z,5.63
2022-11-27T16:05:07.536Z,5.57
2022-11-27T16:07:55.557Z,5.80
2022-11-27T16:10:42.233Z,7.03
2022-11-27T16:13:28.739Z,7.87
2022-11-27T16:16:15.259Z,12.00
2022-11-27T16:19:01.862Z,15.07
2022-11-27T16:21:48.340Z,16.47
2022-11-27T16:24:34.855Z,18.50
2022-11-27T16:27:21.359Z,17.83
2022-11-27T16:30:07.869Z,23.07
2022-11-27T16:32:54.369Z,12.50
2022-11-27T16:35:40.878Z,10.47
2022-11-27T16:38:27.359Z,12.13
2022-11-27T16:41:13.883Z,24.33
2022-11-27T16:44:00.387Z,20.70
2022-11-27T16:46:46.897Z,20.47
2022-11-27T16:49:33.428Z,21.37
2022-11-27T16:52:19.931Z,18.47
2022-11-27T16:55:06.462Z,14.93
2022-11-27T16:57:52.980Z,12.80
2022-11-27T17:00:40.574Z,12.03
2022-11-27T17:03:27.105Z,20.87
2022-11-27T17:06:13.566Z,14.00
2022-11-27T17:09:00.083Z,11.03
2022-11-27T17:11:46.563Z,11.73
2022-11-27T17:14:33.076Z,10.90
2022-11-27T17:17:19.695Z,9.47
2022-11-27T17:20:06.233Z,10.50
2022-11-27T17:22:53.734Z,9.83
2022-11-27T17:25:40.248Z,9.20
2022-11-27T17:28:26.711Z,8.00
2022-11-27T17:31:13.267Z,9.03
2022-11-27T17:33:59.810Z,10.77
2022-11-27T17:36:46.355Z,10.10
2022-11-27T17:39:32.870Z,10.30
2022-11-27T17:42:22.635Z,11.53
2022-11-27T17:45:09.645Z,15.57
2022-11-27T17:47:56.172Z,12.60
2022-11-27T17:50:42.687Z,12.90
2022-11-27T17:53:29.275Z,11.17
2022-11-27T17:56:15.747Z,9.90
2022-11-27T17:59:02.228Z,9.63
2022-11-27T18:01:48.925Z,9.27
2022-11-27T18:04:35.432Z,8.33
2022-11-27T18:07:22.151Z,9.27
2022-11-27T18:10:08.654Z,8.53
2022-11-27T18:12:55.150Z,9.00
2022-11-27T18:15:41.640Z,9.67
2022-11-27T18:18:28.140Z,8.40
2022-11-27T18:21:18.286Z,8.40
2022-11-27T18:27:11.634Z,8.43
2022-11-27T18:29:58.194Z,8.57
2022-11-27T18:32:44.749Z,8.83
2022-11-27T18:35:31.222Z,8.17
2022-11-27T18:38:18.775Z,7.97
2022-11-27T18:41:05.248Z,7.73
2022-11-27T18:43:51.756Z,7.27
2022-11-27T18:46:38.362Z,8.10
2022-11-27T18:49:25.062Z,7.23
2022-11-27T18:52:11.540Z,8.77
2022-11-27T18:54:58.075Z,8.27
2022-11-27T18:57:44.558Z,8.87
2022-11-27T19:00:31.050Z,9.00
2022-11-27T19:03:17.590Z,9.90
2022-11-27T19:06:04.073Z,11.40
2022-11-27T19:08:50.566Z,9.07
2022-11-27T19:11:37.059Z,11.43
2022-11-27T19:14:23.647Z,13.67
2022-11-27T19:17:10.112Z,16.30
2022-11-27T19:19:56.638Z,14.80
2022-11-27T19:22:43.218Z,13.60
2022-11-27T19:25:29.776Z,11.60
2022-11-27T19:28:16.375Z,11.60
2022-11-27T19:31:02.959Z,10.93
2022-11-27T19:33:49.456Z,10.53
2022-11-27T19:36:35.950Z,12.73
2022-11-27T19:39:22.436Z,12.20
2022-11-27T19:42:08.934Z,6.77
2022-11-27T19:44:55.407Z,7.00
2022-11-27T19:47:41.914Z,5.80
2022-11-27T19:50:28.456Z,6.43
2022-11-27T19:53:15.019Z,6.00
2022-11-27T19:56:01.598Z,6.30
2022-11-27T19:58:48.123Z,5.47
2022-11-27T20:01:34.686Z,5.57
2022-11-27T20:04:21.235Z,6.00
2022-11-27T20:07:07.755Z,6.40
2022-11-27T20:09:54.274Z,6.60
2022-11-27T20:12:40.748Z,7.20
2022-11-27T20:15:27.353Z,8.57
2022-11-27T20:18:13.926Z,6.07
2022-11-27T20:21:00.452Z,5.67
2022-11-27T20:23:46.998Z,5.73
2022-11-27T20:26:35.206Z,6.63
2022-11-27T20:29:23.739Z,6.10
2022-11-27T20:32:10.334Z,7.73
2022-11-27T20:34:56.862Z,9.90
2022-11-27T20:37:43.376Z,10.87
2022-11-27T20:40:29.859Z,10.30
2022-11-27T20:43:16.384Z,7.13
2022-11-27T20:46:02.899Z,8.20
2022-11-27T20:48:49.427Z,7.60
2022-11-27T20:51:35.894Z,7.70
2022-11-27T20:54:22.377Z,9.57
2022-11-27T20:57:08.852Z,7.73
2022-11-27T20:59:55.337Z,11.63
2022-11-27T21:02:41.884Z,15.73
2022-11-27T21:05:29.015Z,9.80
2022-11-27T21:08:15.494Z,10.30
2022-11-27T21:11:01.983Z,6.63
2022-11-27T21:13:48.462Z,8.27
2022-11-27T21:16:35.043Z,6.50
2022-11-27T21:19:21.540Z,6.30
2022-11-27T21:22:08.023Z,6.57
2022-11-27T21:24:54.495Z,4.87
2022-11-27T21:27:41.007Z,5.07
2022-11-27T21:30:27.470Z,4.77
2022-11-27T21:33:13.959Z,4.47
2022-11-27T21:36:00.536Z,4.17
2022-11-27T21:38:47.465Z,4.03
2022-11-27T21:41:34.003Z,4.60
2022-11-27T21:44:20.501Z,5.03
2022-11-27T21:47:06.978Z,6.00
2022-11-27T21:49:53.467Z,5.43
2022-11-27T21:52:39.969Z,5.27
2022-11-27T21:55:26.478Z,5.33
2022-11-27T21:58:12.953Z,5.03
2022-11-27T22:00:59.501Z,5.13
2022-11-27T22:03:46.019Z,5.43
2022-11-27T22:06:32.518Z,4.90
2022-11-27T22:09:18.991Z,4.67
2022-11-27T22:12:05.487Z,4.10
2022-11-27T22:14:51.972Z,4.63
2022-11-27T22:17:38.462Z,3.97
2022-11-27T22:20:25.944Z,3.30
2022-11-27T22:23:12.456Z,3.90
2022-11-27T22:25:58.966Z,3.40
2022-11-27T22:28:45.450Z,3.90
2022-11-27T22:31:31.982Z,3.90
2022-11-27T22:34:19.498Z,5.10
2022-11-27T22:37:06.973Z,5.63
2022-11-27T22:39:53.467Z,5.20
2022-11-27T22:42:39.979Z,5.37
2022-11-27T22:45:26.498Z,5.00
2022-11-27T22:48:13.019Z,4.30
2022-11-27T22:50:59.672Z,4.03
2022-11-27T22:53:46.148Z,11.17
2022-11-27T22:56:32.659Z,9.77
2022-11-27T22:59:35.029Z,10.27
2022-11-27T23:02:21.687Z,10.83
2022-11-27T23:05:08.188Z,11.30
2022-11-27T23:07:54.725Z,11.70
2022-11-27T23:10:41.250Z,9.40
2022-11-27T23:13:27.791Z,9.77
2022-11-27T23:16:14.361Z,9.67
2022-11-27T23:19:00.959Z,6.90
2022-11-27T23:21:47.441Z,6.53
2022-11-27T23:24:33.951Z,6.43
2022-11-27T23:27:20.419Z,6.43
2022-11-27T23:30:07.081Z,4.73
2022-11-27T23:32:53.594Z,6.00
2022-11-27T23:35:41.120Z,7.17
2022-11-27T23:38:27.587Z,6.17
2022-11-27T23:41:14.083Z,5.90
2022-11-27T23:44:00.560Z,4.63
2022-11-27T23:46:47.064Z,8.03
2022-11-27T23:49:33.540Z,17.57
2022-11-27T23:52:20.060Z,7.53
2022-11-27T23:55:06.531Z,2.93
2022-11-27T23:57:53.056Z,3.00
